Hobart, Pennsylvania
Current Conditions -  °F | °C
As of 11:53 AM on Thursday 27 Nov 2014 (Local Time) from KTHV Reporting Station
Overcast Overcast  
Wind Chill: 32°   Ceiling: 3000
Heat Index: 36°   Visibility: 10mi
Dew Point: 29°   Wind: 5mph
Humidity: 76%   Direction: 310°NW
Pressure: 30.03"   Gusts: NA
Location:  39.7863°N, 76.988°W
Report Text: KTHV 271653Z AUTO 31004KT 10SM BKN030 OVC060 02/M02 A3003 RMK AO2 SLP177 T00221017
Loading
Personal Weather Stations






























Interactive Weather Map New forecast layout! Learn more

10-Day Weather Forecast

Advertisements
Track Severe Weather on mobile